Copperas Cove, Texas
Current Conditions -  °F | °C
As of 1:08 PM on Thursday 18 Dec 2014 (Local Time) from KHLR Reporting Station
Haze Haze  
Wind Chill: 55°   Ceiling: 700
Heat Index: 55°   Visibility: 4mi
Dew Point: 52°   Wind: 6mph
Humidity: 88%   Direction: 350°N
Pressure: 30.08"   Gusts: NA
Location:  31.12°N, 97.9°W
Report Text: KHLR 181908Z AUTO 35005KT 4SM BR OVC007 13/11 A3008 RMK AO2
Loading
Personal Weather Stations






























Interactive Weather Map New forecast layout! Learn more

10-Day Weather Forecast

Advertisements
Track Severe Weather on mobile